Terminal Aerodrome Forecast
Issued by NWS

Home | Current Version | Previous Version | Text Only | Print | Product List | Glossary On
Versions: 1 2 3 4 5 6 7 8 9 10 11 12 13 14 15 16 17 18 19 20 21
136
FTUS43 KILX 282330
TAFBMI
TAF
KBMI 282330Z 2900/2924 VRB05KT P6SM VCTS SCT050CB BKN150
     FM290600 VRB03KT 5SM BR SCT050 BKN150
     FM291000 VRB03KT 3SM BR BKN010
     FM291500 30004KT P6SM BKN015
     FM292000 32005KT P6SM BKN035=

USA.gov is the U.S. government's official web portal to all federal, state and local government web resources and services.